createdAt,value
2022-08-10T00:01:02.250Z,53.16
2022-08-10T00:03:28.864Z,53.47
2022-08-10T00:05:56.626Z,53.92
2022-08-10T00:08:27.142Z,53.88
2022-08-10T00:10:55.042Z,53.99
2022-08-10T00:13:23.015Z,54.50
2022-08-10T00:15:53.512Z,54.79
2022-08-10T00:18:34.367Z,54.77
2022-08-10T00:21:07.920Z,54.69
2022-08-10T00:23:35.626Z,55.23
2022-08-10T00:26:03.037Z,55.16
2022-08-10T00:28:29.948Z,54.88
2022-08-10T00:30:56.845Z,55.03
2022-08-10T00:33:23.785Z,54.64
2022-08-10T00:35:50.699Z,54.48
2022-08-10T00:38:17.236Z,54.46
2022-08-10T00:40:43.799Z,55.28
2022-08-10T00:43:10.434Z,54.78
2022-08-10T00:45:37.189Z,54.96
2022-08-10T00:48:04.122Z,54.94
2022-08-10T00:50:31.053Z,55.00
2022-08-10T00:52:57.923Z,55.23
2022-08-10T00:55:24.663Z,55.40
2022-08-10T00:57:54.824Z,55.47
2022-08-10T01:00:22.675Z,55.54
2022-08-10T01:02:49.341Z,55.77
2022-08-10T01:05:16.167Z,55.93
2022-08-10T01:08:10.504Z,55.89
2022-08-10T01:10:42.988Z,56.01
2022-08-10T01:13:35.934Z,56.42
2022-08-10T01:16:17.040Z,56.20
2022-08-10T01:18:55.281Z,55.91
2022-08-10T01:21:39.649Z,56.15
2022-08-10T01:24:50.151Z,56.47
2022-08-10T01:27:41.725Z,56.60
2022-08-10T01:30:11.291Z,56.89
2022-08-10T01:32:46.189Z,57.31
2022-08-10T01:35:22.801Z,57.02
2022-08-10T01:38:02.357Z,57.66
2022-08-10T01:40:35.078Z,57.30
2022-08-10T01:43:08.547Z,57.58
2022-08-10T01:45:45.754Z,58.12
2022-08-10T01:48:29.198Z,57.97
2022-08-10T01:51:01.752Z,58.29
2022-08-10T01:53:41.218Z,58.16
2022-08-10T01:56:11.056Z,57.98
2022-08-10T01:58:38.888Z,58.34
2022-08-10T02:01:09.710Z,58.31
2022-08-10T02:04:01.269Z,58.19
2022-08-10T02:06:29.816Z,58.15
2022-08-10T02:14:18.956Z,58.40
2022-08-10T02:46:49.980Z,60.04
2022-08-10T02:49:29.434Z,59.79
2022-08-10T02:52:08.918Z,59.91
2022-08-10T02:54:54.549Z,60.22
2022-08-10T03:02:33.907Z,60.72
2022-08-10T03:05:34.464Z,60.95
2022-08-10T03:08:36.610Z,61.22
2022-08-10T03:12:36.418Z,61.12
2022-08-10T03:14:15.277Z,60.67
2022-08-10T03:16:43.063Z,61.03
2022-08-10T03:20:33.297Z,61.24
2022-08-10T03:21:59.143Z,60.47
2022-08-10T03:24:33.060Z,60.71
2022-08-10T03:27:03.340Z,61.16
2022-08-10T03:30:31.665Z,60.96
2022-08-10T03:32:21.155Z,61.32
2022-08-10T03:34:53.234Z,61.37
2022-08-10T03:37:20.420Z,61.93
2022-08-10T03:39:55.955Z,61.76
2022-08-10T03:42:24.371Z,61.43
2022-08-10T03:44:52.717Z,61.30
2022-08-10T03:47:21.178Z,61.62
2022-08-10T03:49:49.177Z,61.57
2022-08-10T03:52:17.778Z,61.83
2022-08-10T03:54:45.221Z,62.04
2022-08-10T03:57:12.543Z,61.83
2022-08-10T03:59:52.362Z,62.23
2022-08-10T04:02:54.482Z,61.79
2022-08-10T04:05:24.426Z,61.93
2022-08-10T04:08:10.669Z,62.00
2022-08-10T04:11:33.876Z,62.52
2022-08-10T04:14:35.702Z,62.14
2022-08-10T04:16:56.836Z,62.56
2022-08-10T04:19:25.634Z,62.32
2022-08-10T04:22:00.292Z,61.98
2022-08-10T04:24:30.006Z,62.54
2022-08-10T04:26:58.793Z,62.55
2022-08-10T04:29:32.820Z,61.50
2022-08-10T04:37:24.498Z,59.45
2022-08-10T04:40:25.209Z,57.66
2022-08-10T04:42:55.830Z,57.02
2022-08-10T04:45:47.527Z,55.18
2022-08-10T04:48:40.839Z,53.95
2022-08-10T04:51:03.359Z,52.70
2022-08-10T04:53:31.943Z,51.48
2022-08-10T04:55:58.692Z,51.28
2022-08-10T04:58:25.267Z,49.88
2022-08-10T05:00:51.932Z,49.59
2022-08-10T05:03:18.435Z,48.60
2022-08-10T05:05:45.033Z,48.36
2022-08-10T05:08:11.581Z,47.68
2022-08-10T05:10:38.117Z,49.28
2022-08-10T05:13:05.015Z,48.01
2022-08-10T05:15:31.578Z,48.65
2022-08-10T05:18:08.306Z,47.54
2022-08-10T05:20:36.328Z,46.82
2022-08-10T05:23:02.886Z,46.51
2022-08-10T05:25:29.526Z,44.44
2022-08-10T05:28:04.278Z,42.14
2022-08-10T05:30:32.805Z,42.69
2022-08-10T05:33:02.655Z,40.38
2022-08-10T05:35:56.263Z,39.66
2022-08-10T05:38:21.288Z,38.54
2022-08-10T05:40:49.548Z,39.76
2022-08-10T05:43:20.827Z,40.00
2022-08-10T05:46:18.781Z,38.62
2022-08-10T05:48:41.561Z,38.59
2022-08-10T05:51:25.436Z,37.95
2022-08-10T05:54:01.397Z,37.93
2022-08-10T05:56:53.908Z,36.95
2022-08-10T06:00:33.383Z,35.15
2022-08-10T06:02:30.877Z,36.58
2022-08-10T06:05:49.437Z,36.68
2022-08-10T06:08:19.332Z,34.81
2022-08-10T06:12:27.615Z,35.29
2022-08-10T06:14:13.418Z,34.29
2022-08-10T06:16:47.190Z,31.69
2022-08-10T06:19:15.008Z,33.90
2022-08-10T06:21:53.733Z,33.01
2022-08-10T06:24:30.767Z,31.83
2022-08-10T06:26:58.098Z,31.45
2022-08-10T06:29:26.488Z,33.25
2022-08-10T06:31:54.004Z,31.78
2022-08-10T06:34:47.594Z,30.36
2022-08-10T06:37:17.460Z,31.09
2022-08-10T06:39:45.332Z,29.82
2022-08-10T06:42:20.216Z,29.93
2022-08-10T06:45:00.970Z,29.60
2022-08-10T06:47:37.330Z,29.36
2022-08-10T06:50:12.356Z,27.71
2022-08-10T06:52:40.009Z,29.87
2022-08-10T06:55:11.008Z,30.78
2022-08-10T06:57:38.711Z,27.48
2022-08-10T07:00:08.076Z,29.05
2022-08-10T07:02:45.578Z,25.24
2022-08-10T07:05:19.195Z,28.18
2022-08-10T07:07:47.015Z,26.82
2022-08-10T07:10:18.563Z,26.40
2022-08-10T07:12:50.160Z,25.46
2022-08-10T07:15:18.266Z,25.31
2022-08-10T07:17:46.787Z,24.61
2022-08-10T07:20:18.889Z,25.80
2022-08-10T07:23:26.939Z,24.77
2022-08-10T07:25:42.384Z,25.93
2022-08-10T07:28:12.203Z,24.40
2022-08-10T07:30:40.791Z,23.65
2022-08-10T07:33:09.838Z,23.79
2022-08-10T07:35:45.466Z,24.02
2022-08-10T07:38:18.509Z,25.78
2022-08-10T07:40:46.620Z,24.13
2022-08-10T07:43:15.167Z,23.00
2022-08-10T07:45:41.725Z,23.62
2022-08-10T07:48:22.611Z,23.99
2022-08-10T07:50:51.709Z,23.32
2022-08-10T07:53:23.051Z,22.85
2022-08-10T07:56:03.837Z,23.27
2022-08-10T07:58:46.352Z,23.75
2022-08-10T08:01:22.223Z,23.64
2022-08-10T08:04:11.568Z,23.66
2022-08-10T08:06:36.590Z,23.03
2022-08-10T08:09:04.473Z,22.68
2022-08-10T08:11:32.374Z,24.06
2022-08-10T08:14:00.433Z,23.51
2022-08-10T08:16:27.778Z,24.11
2022-08-10T08:19:26.466Z,23.03
2022-08-10T08:24:04.979Z,22.58
2022-08-10T08:24:34.392Z,22.97
2022-08-10T08:27:03.070Z,23.91
2022-08-10T08:29:35.164Z,23.33
2022-08-10T08:32:04.126Z,24.11
2022-08-10T08:34:37.537Z,23.07
2022-08-10T08:37:05.017Z,22.88
2022-08-10T08:39:33.354Z,23.26
2022-08-10T08:42:34.100Z,22.34
2022-08-10T08:45:12.921Z,21.68
2022-08-10T08:48:03.830Z,23.49
2022-08-10T08:50:57.678Z,22.93
2022-08-10T08:54:02.679Z,23.03
2022-08-10T08:57:04.494Z,22.75
2022-08-10T08:59:47.291Z,23.31
2022-08-10T09:02:43.813Z,23.30
2022-08-10T09:05:58.913Z,23.06
2022-08-10T09:08:49.057Z,22.45
2022-08-10T09:11:41.236Z,23.75
2022-08-10T09:14:30.112Z,22.89
2022-08-10T09:17:17.242Z,23.66
2022-08-10T09:19:51.031Z,23.36
2022-08-10T09:22:45.934Z,24.01
2022-08-10T09:25:20.301Z,23.88
2022-08-10T09:27:52.523Z,23.99
2022-08-10T09:30:29.636Z,24.11
2022-08-10T09:36:22.794Z,23.81
2022-08-10T09:36:24.242Z,22.65
2022-08-10T09:40:06.773Z,21.05
2022-08-10T09:42:14.735Z,19.79
2022-08-10T09:45:14.766Z,20.55
2022-08-10T09:48:04.450Z,22.89
2022-08-10T09:51:16.284Z,23.50
2022-08-10T09:53:51.774Z,23.97
2022-08-10T09:57:12.007Z,24.41
2022-08-10T10:00:05.898Z,25.95
2022-08-10T10:02:40.642Z,25.06
2022-08-10T10:05:13.812Z,25.11
2022-08-10T10:07:50.841Z,24.79
2022-08-10T10:10:22.713Z,24.96
2022-08-10T10:13:00.787Z,24.97
2022-08-10T10:15:45.577Z,24.93
2022-08-10T10:18:22.448Z,25.08
2022-08-10T10:21:09.121Z,25.70
2022-08-10T10:24:20.428Z,25.60
2022-08-10T10:27:15.996Z,26.12
2022-08-10T10:29:59.736Z,26.31
2022-08-10T10:32:42.801Z,26.33
2022-08-10T10:35:43.580Z,26.63
2022-08-10T10:38:12.542Z,25.75
2022-08-10T10:41:08.187Z,25.25
2022-08-10T10:44:08.607Z,25.22
2022-08-10T10:47:09.943Z,24.79
2022-08-10T10:49:57.282Z,24.79
2022-08-10T10:53:05.403Z,25.08
2022-08-10T10:55:50.025Z,25.84
2022-08-10T10:58:56.031Z,25.53
2022-08-10T11:01:22.558Z,25.50
2022-08-10T11:04:37.232Z,23.64
2022-08-10T11:07:31.690Z,23.76
2022-08-10T11:10:33.221Z,23.03
2022-08-10T11:14:23.087Z,22.68
2022-08-10T11:16:17.544Z,23.21
2022-08-10T11:18:46.932Z,22.34
2022-08-10T11:21:32.379Z,22.78
2022-08-10T11:24:47.893Z,22.68
2022-08-10T11:27:03.470Z,23.79
2022-08-10T11:29:37.138Z,23.26
2022-08-10T11:32:21.656Z,22.96
2022-08-10T11:35:11.706Z,23.81
2022-08-10T11:38:30.351Z,23.05
2022-08-10T11:42:06.100Z,23.77
2022-08-10T11:44:11.219Z,24.59
2022-08-10T11:47:11.945Z,22.89
2022-08-10T11:50:01.837Z,22.43
2022-08-10T11:52:43.431Z,22.09
2022-08-10T11:55:22.354Z,22.07
2022-08-10T11:57:53.897Z,21.63
2022-08-10T12:00:24.052Z,22.28
2022-08-10T12:02:56.494Z,22.89
2022-08-10T12:05:54.407Z,23.12
2022-08-10T12:10:03.505Z,23.34
2022-08-10T12:11:33.291Z,22.81
2022-08-10T12:14:22.030Z,22.75
2022-08-10T12:16:52.511Z,21.89
2022-08-10T12:19:59.718Z,21.71
2022-08-10T12:22:33.563Z,21.50
2022-08-10T12:25:04.470Z,22.11
2022-08-10T12:27:46.294Z,21.74
2022-08-10T12:30:18.015Z,22.05
2022-08-10T12:33:14.503Z,21.07
2022-08-10T12:36:17.456Z,21.86
2022-08-10T12:38:56.684Z,21.86
2022-08-10T12:41:43.833Z,22.12
2022-08-10T12:44:11.614Z,21.62
2022-08-10T12:47:00.017Z,21.50
2022-08-10T12:49:34.154Z,21.16
2022-08-10T12:52:20.773Z,20.91
2022-08-10T12:54:50.036Z,21.49
2022-08-10T12:57:19.163Z,21.34
2022-08-10T12:59:49.927Z,21.60
2022-08-10T13:02:38.899Z,21.49
2022-08-10T13:05:08.767Z,21.42
2022-08-10T13:08:24.407Z,21.75
2022-08-10T13:10:25.759Z,21.33
2022-08-10T13:12:56.036Z,21.66
2022-08-10T13:15:48.338Z,21.46
2022-08-10T13:18:18.521Z,21.95
2022-08-10T13:20:50.968Z,22.02
2022-08-10T13:23:22.109Z,21.63
2022-08-10T13:25:51.810Z,22.01
2022-08-10T13:28:36.041Z,22.56
2022-08-10T13:31:17.022Z,22.81
2022-08-10T13:34:40.411Z,22.43
2022-08-10T13:36:50.974Z,21.92
2022-08-10T13:39:21.194Z,22.13
2022-08-10T13:41:49.300Z,22.05
2022-08-10T13:44:27.956Z,22.28
2022-08-10T13:47:48.216Z,21.81
2022-08-10T13:50:32.006Z,20.78
2022-08-10T13:53:09.982Z,20.89
2022-08-10T13:55:55.009Z,21.55
2022-08-10T13:58:36.510Z,22.01
2022-08-10T14:01:22.638Z,21.88
2022-08-10T14:03:51.696Z,22.31
2022-08-10T14:06:20.374Z,22.92
2022-08-10T14:08:57.995Z,22.90
2022-08-10T14:11:29.633Z,22.58
2022-08-10T14:14:16.732Z,22.32
2022-08-10T14:16:44.796Z,22.58
2022-08-10T14:19:26.572Z,22.58
2022-08-10T14:21:55.264Z,22.53
2022-08-10T14:24:23.258Z,22.18
2022-08-10T14:26:57.920Z,22.36
2022-08-10T14:29:26.318Z,22.59
2022-08-10T14:32:01.392Z,21.95
2022-08-10T14:36:15.634Z,21.76
2022-08-10T14:37:33.098Z,21.96
2022-08-10T14:40:08.244Z,21.74
2022-08-10T14:43:13.533Z,22.21
2022-08-10T14:45:47.756Z,22.29
2022-08-10T14:48:32.835Z,22.60
2022-08-10T14:51:05.592Z,22.92
2022-08-10T14:53:36.118Z,22.33
2022-08-10T14:56:07.985Z,22.41
2022-08-10T14:58:38.472Z,22.32
2022-08-10T15:01:07.990Z,22.67
2022-08-10T15:03:58.567Z,22.01
2022-08-10T15:06:30.577Z,22.28
2022-08-10T15:09:19.486Z,22.70
2022-08-10T15:12:14.080Z,22.47
2022-08-10T15:14:43.398Z,22.33
2022-08-10T15:17:14.076Z,22.35
2022-08-10T15:20:03.695Z,22.73
2022-08-10T15:22:38.104Z,22.84
2022-08-10T15:25:18.927Z,22.57
2022-08-10T15:27:56.109Z,22.64
2022-08-10T15:30:31.629Z,22.53
2022-08-10T15:34:02.696Z,23.18
2022-08-10T15:36:28.868Z,22.95
2022-08-10T15:39:01.703Z,22.68
2022-08-10T15:41:58.134Z,22.73
2022-08-10T15:44:40.982Z,23.33
2022-08-10T15:47:27.985Z,22.72
2022-08-10T15:50:29.049Z,23.61
2022-08-10T15:53:10.054Z,23.61
2022-08-10T15:55:53.526Z,23.53
2022-08-10T15:58:39.161Z,23.81
2022-08-10T16:02:13.768Z,23.71
2022-08-10T16:04:14.457Z,23.53
2022-08-10T16:06:48.644Z,23.17
2022-08-10T16:10:22.741Z,23.18
2022-08-10T16:12:32.635Z,22.69
2022-08-10T16:15:07.801Z,23.15
2022-08-10T16:17:54.011Z,23.26
2022-08-10T16:20:27.092Z,23.59
2022-08-10T16:23:00.542Z,24.33
2022-08-10T16:25:51.438Z,24.40
2022-08-10T16:28:22.965Z,24.27
2022-08-10T16:30:54.270Z,24.24
2022-08-10T16:33:54.059Z,24.53
2022-08-10T16:36:17.571Z,24.80
2022-08-10T16:38:46.861Z,24.99
2022-08-10T16:42:04.045Z,24.83
2022-08-10T16:44:06.859Z,24.88
2022-08-10T16:46:34.871Z,24.27
2022-08-10T16:49:02.602Z,24.41
2022-08-10T16:51:56.145Z,24.83
2022-08-10T16:54:27.530Z,24.31
2022-08-10T16:57:01.136Z,24.63
2022-08-10T16:59:44.143Z,24.90
2022-08-10T17:02:21.276Z,25.31
2022-08-10T17:04:51.460Z,25.55
2022-08-10T17:07:19.883Z,25.42
2022-08-10T17:09:54.263Z,25.53
2022-08-10T17:12:27.036Z,25.92
2022-08-10T17:15:09.570Z,25.66
2022-08-10T17:17:46.773Z,26.04
2022-08-10T17:20:31.755Z,25.58
2022-08-10T17:23:06.348Z,25.94
2022-08-10T17:25:46.178Z,26.15
2022-08-10T17:28:33.099Z,26.48
2022-08-10T17:31:23.968Z,26.20
2022-08-10T17:33:59.545Z,26.63
2022-08-10T17:36:35.521Z,25.85
2022-08-10T17:39:04.094Z,26.03
2022-08-10T17:41:33.402Z,25.97
2022-08-10T17:44:04.057Z,25.92
2022-08-10T17:46:39.746Z,26.39
2022-08-10T17:49:09.465Z,26.53
2022-08-10T17:51:38.223Z,26.06
2022-08-10T17:54:09.159Z,25.63
2022-08-10T17:56:37.883Z,25.69
2022-08-10T17:59:15.180Z,25.82
2022-08-10T18:02:01.746Z,26.04
2022-08-10T18:04:35.552Z,26.25
2022-08-10T18:07:09.806Z,26.70
2022-08-10T18:09:42.419Z,27.13
2022-08-10T18:12:19.099Z,26.96
2022-08-10T18:14:50.063Z,26.86
2022-08-10T18:17:38.509Z,27.17
2022-08-10T18:20:08.713Z,27.63
2022-08-10T18:22:42.847Z,27.57
2022-08-10T18:25:15.953Z,27.89
2022-08-10T18:28:03.713Z,27.60
2022-08-10T18:30:35.943Z,28.37
2022-08-10T18:33:09.039Z,28.42
2022-08-10T18:35:36.245Z,28.46
2022-08-10T18:38:03.899Z,28.53
2022-08-10T18:40:35.520Z,28.96
2022-08-10T18:44:04.452Z,29.19
2022-08-10T18:45:56.536Z,29.47
2022-08-10T18:48:32.953Z,29.80
2022-08-10T18:51:05.677Z,29.73
2022-08-10T18:53:38.572Z,31.32
2022-08-10T18:56:25.265Z,30.65
2022-08-10T18:59:28.535Z,31.65
2022-08-10T19:02:03.973Z,31.68
2022-08-10T19:04:54.634Z,32.67
2022-08-10T19:07:34.358Z,32.54
2022-08-10T19:10:26.846Z,32.56
2022-08-10T19:13:14.471Z,33.65
2022-08-10T19:16:08.864Z,33.54
2022-08-10T19:18:54.418Z,33.63
2022-08-10T19:21:32.926Z,33.74
2022-08-10T19:24:12.062Z,34.26
2022-08-10T19:26:46.788Z,34.32
2022-08-10T19:30:09.589Z,34.76
2022-08-10T19:32:25.893Z,35.13
2022-08-10T19:35:30.584Z,34.83
2022-08-10T19:38:17.479Z,35.45
2022-08-10T19:41:30.940Z,35.17
2022-08-10T19:44:26.676Z,35.50
2022-08-10T19:47:02.570Z,35.46
2022-08-10T19:49:50.299Z,36.17
2022-08-10T19:52:30.185Z,36.64
2022-08-10T19:55:29.188Z,36.52
2022-08-10T19:58:04.684Z,36.93
2022-08-10T20:00:57.580Z,37.06
2022-08-10T20:03:58.090Z,37.54
2022-08-10T20:06:42.361Z,37.61
2022-08-10T20:09:21.842Z,38.78
2022-08-10T20:12:02.168Z,38.23
2022-08-10T20:15:16.894Z,38.03
2022-08-10T20:17:52.524Z,38.01
2022-08-10T20:20:32.762Z,38.29
2022-08-10T20:23:12.068Z,38.38
2022-08-10T20:25:42.362Z,38.70
2022-08-10T20:28:16.362Z,38.63
2022-08-10T20:30:48.054Z,39.39
2022-08-10T20:33:25.973Z,39.18
2022-08-10T20:35:59.216Z,39.13
2022-08-10T20:38:45.724Z,39.01
2022-08-10T20:41:21.057Z,39.18
2022-08-10T20:44:00.055Z,39.37
2022-08-10T20:46:50.392Z,39.07
2022-08-10T20:49:37.548Z,39.39
2022-08-10T20:52:04.704Z,39.10
2022-08-10T20:54:40.150Z,38.92
2022-08-10T20:57:54.384Z,38.64
2022-08-10T21:00:30.514Z,39.08
2022-08-10T21:03:07.132Z,38.75
2022-08-10T21:06:04.456Z,40.35
2022-08-10T21:08:56.065Z,39.17
2022-08-10T21:18:57.065Z,39.75
2022-08-10T21:21:42.290Z,39.50
2022-08-10T21:24:32.110Z,39.11
2022-08-10T21:27:15.202Z,38.68
2022-08-10T21:29:56.157Z,38.66
2022-08-10T21:32:34.952Z,38.85
2022-08-10T21:35:37.566Z,38.93
2022-08-10T21:38:51.979Z,39.13
2022-08-10T21:42:14.889Z,39.08
2022-08-10T21:45:57.025Z,39.10
2022-08-10T21:48:57.763Z,39.62
2022-08-10T21:52:01.889Z,39.59
2022-08-10T21:59:24.285Z,40.13
2022-08-10T22:02:31.856Z,40.26
2022-08-10T22:05:25.743Z,40.16
2022-08-10T22:08:30.073Z,40.32
2022-08-10T22:11:24.162Z,40.04
2022-08-10T22:14:10.679Z,39.92
2022-08-10T22:17:04.006Z,40.77
2022-08-10T22:20:24.793Z,39.97
2022-08-10T22:27:06.511Z,40.46
2022-08-10T22:30:01.921Z,40.26
2022-08-10T22:31:25.493Z,39.79
2022-08-10T22:33:24.655Z,40.10
2022-08-10T22:36:33.023Z,40.10
2022-08-10T22:40:07.718Z,40.49
2022-08-10T22:42:59.459Z,40.74
2022-08-10T22:45:55.055Z,41.07
2022-08-10T22:48:40.777Z,41.06
2022-08-10T22:51:20.636Z,41.09
2022-08-10T22:54:31.331Z,41.71
2022-08-10T22:57:21.382Z,41.45
2022-08-10T22:59:49.376Z,41.42
2022-08-10T23:02:26.601Z,41.98
2022-08-10T23:04:58.471Z,41.65
2022-08-10T23:07:35.562Z,42.21
2022-08-10T23:10:11.684Z,42.10
2022-08-10T23:12:46.777Z,42.42
2022-08-10T23:15:43.149Z,42.89
2022-08-10T23:18:33.001Z,42.76
2022-08-10T23:21:01.460Z,42.76
2022-08-10T23:23:35.241Z,43.03
2022-08-10T23:26:03.621Z,43.10
2022-08-10T23:28:38.830Z,43.26
2022-08-10T23:31:58.408Z,42.76
2022-08-10T23:34:11.432Z,43.41
2022-08-10T23:36:40.191Z,43.65
2022-08-10T23:39:25.941Z,43.08
2022-08-10T23:41:55.944Z,43.43
2022-08-10T23:44:23.695Z,44.11
2022-08-10T23:46:51.714Z,43.43
2022-08-10T23:49:19.865Z,43.49
2022-08-10T23:51:55.733Z,43.68
2022-08-10T23:54:24.969Z,43.47
2022-08-10T23:57:01.060Z,43.73
2022-08-10T23:59:31.178Z,42.92
